createdAt,value
2024-01-04T00:14:38.256Z,7.92
2024-01-04T00:25:44.121Z,7.95
2024-01-04T00:37:14.100Z,7.96
2024-01-04T00:48:44.328Z,7.95
2024-01-04T01:00:14.217Z,7.94
2024-01-04T01:11:45.255Z,7.91
2024-01-04T01:23:16.337Z,7.90
2024-01-04T01:34:54.306Z,7.85
2024-01-04T01:46:34.419Z,7.66
2024-01-04T01:58:33.355Z,7.44
2024-01-04T02:10:42.353Z,7.30
2024-01-04T02:22:13.386Z,7.23
2024-01-04T02:33:28.539Z,7.18
2024-01-04T02:45:05.632Z,7.15
2024-01-04T02:56:41.725Z,7.16
2024-01-04T03:07:40.451Z,7.18
2024-01-04T03:18:43.735Z,7.05
2024-01-04T03:30:02.508Z,6.93
2024-01-04T03:41:09.104Z,6.88
2024-01-04T03:52:46.638Z,6.88
2024-01-04T04:03:59.083Z,6.86
2024-01-04T04:15:33.563Z,6.80
2024-01-04T04:26:45.637Z,6.74
2024-01-04T04:37:48.562Z,6.69
2024-01-04T04:49:01.035Z,6.69
2024-01-04T05:02:47.634Z,6.71
2024-01-04T05:15:10.675Z,6.65
2024-01-04T05:57:02.864Z,6.97
2024-01-04T06:21:08.956Z,6.66
2024-01-04T06:33:51.224Z,6.52
2024-01-04T06:45:38.730Z,6.39
2024-01-04T06:57:43.647Z,6.32
2024-01-04T07:10:29.451Z,6.26
2024-01-04T07:22:34.560Z,6.19
2024-01-04T07:34:41.223Z,6.16
2024-01-04T07:46:48.349Z,6.13
2024-01-04T07:59:00.558Z,6.13
2024-01-04T08:10:50.800Z,6.18
2024-01-04T08:23:36.334Z,6.25
2024-01-04T08:36:09.443Z,6.24
2024-01-04T08:48:31.975Z,6.16
2024-01-04T09:00:57.578Z,6.12
2024-01-04T09:13:32.334Z,6.12
2024-01-04T09:26:08.653Z,6.13
2024-01-04T09:38:54.305Z,6.16
2024-01-04T09:51:19.916Z,6.22
2024-01-04T10:03:44.719Z,6.47
2024-01-04T10:16:09.265Z,6.66
2024-01-04T10:28:57.566Z,6.83
2024-01-04T10:41:42.441Z,7.00
2024-01-04T11:11:06.738Z,7.04
2024-01-04T11:36:37.534Z,7.29
2024-01-04T12:12:43.988Z,5.73
2024-01-04T12:25:22.725Z,5.53
2024-01-04T13:06:21.752Z,4.81
2024-01-04T13:21:31.668Z,4.34
2024-01-04T13:46:20.232Z,3.95
2024-01-04T13:58:50.772Z,3.81
2024-01-04T14:26:10.133Z,3.65
2024-01-04T15:02:10.955Z,3.40
2024-01-04T15:15:02.606Z,3.21
2024-01-04T15:39:55.251Z,2.82
2024-01-04T16:15:47.567Z,2.47
2024-01-04T16:29:01.764Z,2.41
2024-01-04T17:04:55.798Z,2.26
2024-01-04T17:29:51.284Z,2.17
2024-01-04T17:56:41.004Z,2.06
2024-01-04T18:09:22.089Z,1.98
2024-01-04T18:21:02.833Z,1.92
2024-01-04T18:32:07.155Z,1.85
2024-01-04T18:42:33.182Z,1.84
2024-01-04T18:53:38.299Z,1.81
2024-01-04T19:04:23.819Z,1.78
2024-01-04T19:15:32.123Z,1.71
2024-01-04T19:27:41.486Z,1.64
2024-01-04T19:40:07.389Z,1.57
2024-01-04T20:14:59.169Z,1.27
2024-01-04T20:51:29.971Z,0.81
2024-01-04T21:30:29.608Z,0.56
2024-01-04T22:16:47.359Z,0.46
2024-01-04T22:28:33.525Z,0.40
2024-01-04T22:52:24.288Z,0.40
2024-01-04T23:27:06.976Z,0.67
2024-01-04T23:39:20.914Z,0.60
